Terminal Aerodrome Forecast
Issued by NWS

Home | Current Version | Previous Version | Text Only | Print | Product List | Glossary On
Versions: 1 2 3 4 5 6 7 8 9 10 11 12 13 14
470
FTUS44 KBMX 262054 AAA
TAFTOI
TAF AMD
KTOI 262054Z 2621/2718 15009KT P6SM VCTS BKN050CB BKN100
      TEMPO 2621/2623 3SM TSRA BKN050CB
     FM270100 15003KT P6SM SCT060 BKN250
     FM271100 15005KT P6SM BKN015=

USA.gov is the U.S. government's official web portal to all federal, state and local government web resources and services.